Time;durP1;ratioP1;P1;durP2;ratioP2;P2;SDS_P1;SDS_P2;PMS_P1;PMS_P2;Temp;Humidity;BMP_temperature;BMP_pressure;BME280_temperature;BME280_humidity;BME280_pressure;Samples;Min_cycle;Max_cycle;Signal;HPM_P1;HPM_P2
2021/08/15 00:01:53;;;;;;;13.03;9.20;;;;;;;;;;5077966;28;20465;-92
2021/08/15 00:04:20;;;;;;;11.53;10.40;;;;;;;;;;5076730;28;20598;-93
2021/08/15 00:06:49;;;;;;;10.27;9.20;;;;;;;;;;5077913;28;20461;-93
2021/08/15 00:09:16;;;;;;;11.70;10.50;;;;;;;;;;5075004;28;20446;-93
2021/08/15 00:11:43;;;;;;;11.60;9.53;;;;;;;;;;5076745;28;20465;-96
2021/08/15 00:14:10;;;;;;;13.10;10.20;;;;;;;;;;5077844;28;20460;-94
2021/08/15 00:16:37;;;;;;;9.73;8.87;;;;;;;;;;5075448;28;20800;-96
2021/08/15 00:19:06;;;;;;;10.73;9.63;;;;;;;;;;5077372;28;20784;-93
2021/08/15 00:21:33;;;;;;;9.67;8.67;;;19.50;99.90;;;;;;5076515;28;20446;-94
2021/08/15 00:24:02;;;;;;;9.87;8.87;;;19.40;99.90;;;;;;5074459;28;20437;-94
2021/08/15 00:26:29;;;;;;;11.60;10.07;;;;;;;;;;5077698;28;20453;-93
2021/08/15 00:28:56;;;;;;;11.20;10.10;;;;;;;;;;5076197;28;20914;-93
2021/08/15 00:31:23;;;;;;;12.40;9.50;;;;;;;;;;5077403;28;20453;-94
2021/08/15 00:33:51;;;;;;;11.23;10.10;;;;;;;;;;5075178;28;20465;-93
2021/08/15 00:36:18;;;;;;;11.20;10.10;;;;;;;;;;5076622;28;20460;-95
2021/08/15 00:38:45;;;;;;;12.57;9.20;;;;;;;;;;5075793;28;20450;-95
2021/08/15 00:41:13;;;;;;;10.80;9.70;;;;;;;;;;5076281;28;20484;-93
2021/08/15 00:43:40;;;;;;;11.43;9.90;;;;;;;;;;5074745;28;20445;-92
2021/08/15 00:46:08;;;;;;;11.40;10.30;;;19.20;99.90;;;;;;5077148;28;20492;-93
2021/08/15 00:48:35;;;;;;;10.47;9.37;;;;;;;;;;5076565;28;20445;-93
2021/08/15 00:51:02;;;;;;;10.90;10.00;;;;;;;;;;5076562;28;20544;-93
2021/08/15 00:53:30;;;;;;;9.70;8.80;;;;;;;;;;5075630;28;20449;-95
2021/08/15 00:55:57;;;;;;;12.47;10.17;;;;;;;;;;5076190;28;20434;-94
2021/08/15 00:58:30;;;;;;;13.20;11.87;;;19.00;99.90;;;;;;5077270;28;20430;-93
2021/08/15 01:00:58;;;;;;;11.77;10.60;;;;;;;;;;5074500;28;20473;-93
2021/08/15 01:03:25;;;;;;;11.73;10.67;;;;;;;;;;5081285;28;20468;-92
2021/08/15 01:05:52;;;;;;;11.80;10.60;;;;;;;;;;5086493;28;20913;-93
2021/08/15 01:08:19;;;;;;;13.77;12.27;;;;;;;;;;5085410;28;20460;-93
2021/08/15 01:10:46;;;;;;;15.67;11.80;;;;;;;;;;5084045;28;20446;-93
2021/08/15 01:13:13;;;;;;;11.70;10.50;;;;;;;;;;5076942;28;20449;-94
2021/08/15 01:15:42;;;;;;;11.53;10.40;;;;;;;;;;5076510;28;20811;-94
2021/08/15 01:18:24;;;;;;;12.97;10.87;;;18.60;99.90;;;;;;5076566;28;20453;-93
2021/08/15 01:20:57;;;;;;;11.73;10.63;;;18.60;99.90;;;;;;5072547;28;20602;-95
2021/08/15 01:23:24;;;;;;;11.20;10.10;;;;;;;;;;5074118;28;20437;-92
2021/08/15 01:25:51;;;;;;;11.47;10.37;;;;;;;;;;5076483;28;20910;-94
2021/08/15 01:28:21;;;;;;;12.07;10.87;;;18.30;99.90;;;;;;5075699;28;20948;-93
2021/08/15 01:30:48;;;;;;;12.93;11.63;;;18.40;99.90;;;;;;5073716;28;20450;-94
2021/08/15 01:33:25;;;;;;;17.47;12.47;;;18.40;99.90;;;;;;5075241;28;20937;-94
2021/08/15 01:35:53;;;;;;;13.67;12.37;;;;;;;;;;5075162;28;20449;-93
2021/08/15 01:38:20;;;;;;;12.93;11.63;;;;;;;;;;5074967;28;21546;-93
2021/08/15 01:40:47;;;;;;;11.87;10.50;;;;;;;;;;5074870;28;20494;-93
2021/08/15 01:43:15;;;;;;;11.73;10.63;;;;;;;;;;5085145;28;20450;-94
2021/08/15 01:45:43;;;;;;;12.17;10.70;;;;;;;;;;5096940;28;20455;-94
2021/08/15 01:48:11;;;;;;;13.83;10.03;;;;;;;;;;5083637;28;20445;-93
2021/08/15 01:50:38;;;;;;;12.70;9.47;;;;;;;;;;5076206;28;20441;-93
2021/08/15 01:53:08;;;;;;;13.43;9.63;;;18.10;99.90;;;;;;5074749;28;20441;-93
2021/08/15 01:55:35;;;;;;;19.90;9.80;;;;;;;;;;5074903;28;21014;-95
2021/08/15 01:58:02;;;;;;;10.37;9.37;;;;;;;;;;5074324;28;20426;-94
2021/08/15 02:00:30;;;;;;;11.00;8.80;;;;;;;;;;5073266;28;20485;-92
2021/08/15 02:02:58;;;;;;;9.97;8.97;;;;;;;;;;5074592;28;20441;-93
2021/08/15 02:05:25;;;;;;;11.10;10.00;;;;;;;;;;5074164;28;20441;-93
2021/08/15 02:07:55;;;;;;;10.07;8.97;;;;;;;;;;5071440;28;20453;-94
2021/08/15 02:10:24;;;;;;;13.87;9.23;;;18.00;99.90;;;;;;5073976;28;20445;-94
2021/08/15 02:12:52;;;;;;;10.70;9.70;;;;;;;;;;5071707;28;20445;-96
2021/08/15 02:15:19;;;;;;;10.70;9.47;;;;;;;;;;5074682;28;20792;-94
2021/08/15 02:17:46;;;;;;;10.97;9.87;;;;;;;;;;5072979;28;20434;-93
2021/08/15 02:20:16;;;;;;;12.37;10.13;;;;;;;;;;5074487;28;20477;-92
2021/08/15 02:22:43;;;;;;;11.60;10.20;;;;;;;;;;5074403;28;20897;-94
2021/08/15 02:25:11;;;;;;;10.50;9.50;;;;;;;;;;5075039;28;20960;-92
2021/08/15 02:27:38;;;;;;;10.13;9.13;;;;;;;;;;5074541;28;20453;-94
2021/08/15 02:30:07;;;;;;;10.80;8.90;;;17.70;99.90;;;;;;5075025;28;20453;-93
2021/08/15 02:32:35;;;;;;;12.63;9.27;;;;;;;;;;5073015;28;20445;-92
2021/08/15 02:35:02;;;;;;;10.50;9.57;;;;;;;;;;5074660;28;20469;-94
2021/08/15 02:37:31;;;;;;;11.97;9.20;;;;;;;;;;5074562;28;20441;-93
2021/08/15 02:39:59;;;;;;;10.60;9.60;;;;;;;;;;5073648;28;21053;-93
2021/08/15 02:42:26;;;;;;;10.10;9.10;;;;;;;;;;5074598;28;20564;-94
2021/08/15 02:44:53;;;;;;;11.30;10.17;;;;;;;;;;5075224;28;20477;-92
2021/08/15 02:47:20;;;;;;;10.13;9.13;;;;;;;;;;5075177;28;20486;-92
2021/08/15 02:49:47;;;;;;;10.77;9.67;;;;;;;;;;5073148;28;20444;-94
2021/08/15 02:52:14;;;;;;;11.27;9.37;;;;;;;;;;5075240;28;20447;-95
2021/08/15 02:54:44;;;;;;;11.23;10.03;;;;;;;;;;5074679;28;20460;-94
2021/08/15 02:57:11;;;;;;;16.00;10.50;;;;;;;;;;5073647;28;20459;-94
2021/08/15 02:59:40;;;;;;;11.40;10.20;;;;;;;;;;5073920;28;20438;-92
2021/08/15 03:02:07;;;;;;;11.43;10.23;;;;;;;;;;5073875;28;20511;-93
2021/08/15 03:04:34;;;;;;;11.67;10.33;;;;;;;;;;5073915;28;20452;-92
2021/08/15 03:07:02;;;;;;;11.70;10.60;;;;;;;;;;5073887;28;20434;-93
2021/08/15 03:09:29;;;;;;;11.70;10.50;;;;;;;;;;5072076;28;20949;-93
2021/08/15 03:11:58;;;;;;;13.73;10.90;;;17.70;99.90;;;;;;5073918;28;20472;-95
2021/08/15 03:14:25;;;;;;;11.87;10.50;;;17.80;99.90;;;;;;5073878;28;20972;-94
2021/08/15 03:16:52;;;;;;;13.00;10.60;;;;;;;;;;5072015;28;20933;-93
2021/08/15 03:19:19;;;;;;;11.63;9.87;;;;;;;;;;5073663;28;20468;-93
2021/08/15 03:21:46;;;;;;;14.30;11.93;;;;;;;;;;5073313;28;20473;-92
2021/08/15 03:24:14;;;;;;;11.87;10.67;;;;;;;;;;5074403;28;20461;-93
2021/08/15 03:26:44;;;;;;;12.63;11.37;;;;;;;;;;5077062;28;20571;-96
2021/08/15 03:29:12;;;;;;;11.40;10.30;;;;;;;;;;5074249;28;20472;-93
2021/08/15 03:31:39;;;;;;;13.33;10.97;;;;;;;;;;5076647;28;20487;-94
2021/08/15 03:34:07;;;;;;;12.17;10.97;;;;;;;;;;5077282;28;20453;-94
2021/08/15 03:36:34;;;;;;;11.83;10.07;;;;;;;;;;5076987;28;20453;-91
2021/08/15 03:39:01;;;;;;;12.30;10.40;;;;;;;;;;5077425;28;20504;-93
2021/08/15 03:41:28;;;;;;;12.50;10.90;;;;;;;;;;5077391;28;20492;-93
2021/08/15 03:43:55;;;;;;;13.30;11.90;;;;;;;;;;5075846;28;20465;-93
2021/08/15 03:46:24;;;;;;;10.93;9.83;;;17.60;99.90;;;;;;5076524;28;20485;-95
2021/08/15 03:48:52;;;;;;;13.10;11.70;;;;;;;;;;5076104;28;20800;-92
2021/08/15 03:51:19;;;;;;;12.40;11.20;;;;;;;;;;5075550;28;20799;-94
2021/08/15 03:53:46;;;;;;;13.40;10.97;;;;;;;;;;5077337;28;20450;-93
2021/08/15 03:56:13;;;;;;;15.37;11.40;;;;;;;;;;5076685;28;20453;-93
2021/08/15 03:58:40;;;;;;;12.10;10.97;;;;;;;;;;5075409;28;20468;-93
2021/08/15 04:01:07;;;;;;;13.37;12.07;;;;;;;;;;5077083;28;20477;-93
2021/08/15 04:03:36;;;;;;;12.43;11.13;;;;;;;;;;5076975;28;20457;-94
2021/08/15 04:06:08;;;;;;;13.53;12.23;;;;;;;;;;5077939;28;20461;-93
2021/08/15 04:08:35;;;;;;;13.37;12.07;;;;;;;;;;5076243;28;20450;-93
2021/08/15 04:11:02;;;;;;;16.30;11.73;;;;;;;;;;5076959;28;20449;-93
2021/08/15 04:13:29;;;;;;;12.60;11.40;;;;;;;;;;5077011;28;20453;-93
2021/08/15 04:15:57;;;;;;;13.40;12.03;;;;;;;;;;5076870;28;20460;-94
2021/08/15 04:18:24;;;;;;;13.63;12.23;;;17.50;99.90;;;;;;5076771;28;20450;-95
2021/08/15 04:20:52;;;;;;;14.23;11.90;;;;;;;;;;5075181;28;20477;-93
2021/08/15 04:23:20;;;;;;;13.00;11.70;;;;;;;;;;5075645;28;20437;-93
2021/08/15 04:25:47;;;;;;;13.17;11.80;;;;;;;;;;5077281;28;20453;-94
2021/08/15 04:28:14;;;;;;;12.40;11.23;;;;;;;;;;5077366;28;20457;-92
2021/08/15 04:30:41;;;;;;;13.73;12.33;;;;;;;;;;5087383;28;20449;-93
2021/08/15 04:33:08;;;;;;;13.23;11.83;;;;;;;;;;5099524;28;20946;-95
2021/08/15 04:35:35;;;;;;;12.73;11.53;;;;;;;;;;5084512;28;20450;-94
2021/08/15 04:38:04;;;;;;;12.73;11.63;;;;;;;;;;5076295;28;20854;-93
2021/08/15 04:40:31;;;;;;;13.17;11.87;;;;;;;;;;5076100;28;20438;-93
2021/08/15 04:42:58;;;;;;;13.10;11.20;;;;;;;;;;5059705;28;20462;-95
2021/08/15 04:45:25;;;;;;;14.90;13.43;;;;;;;;;;5054664;28;20443;-93
2021/08/15 04:47:52;;;;;;;14.20;11.90;;;;;;;;;;5054267;28;20470;-92
2021/08/15 04:50:19;;;;;;;12.47;11.27;;;;;;;;;;5056088;28;20449;-93
2021/08/15 04:52:46;;;;;;;14.27;10.73;;;;;;;;;;5055183;28;20884;-92
2021/08/15 04:55:15;;;;;;;12.13;11.03;;;;;;;;;;5054967;28;20442;-94
2021/08/15 04:57:42;;;;;;;12.50;11.30;;;;;;;;;;5052503;28;20450;-93
2021/08/15 05:00:10;;;;;;;13.73;11.07;;;;;;;;;;5055452;28;20442;-93
2021/08/15 05:02:37;;;;;;;12.33;11.20;;;;;;;;;;5055905;28;20485;-93
2021/08/15 05:05:04;;;;;;;11.73;10.53;;;;;;;;;;5054915;28;20451;-93
2021/08/15 05:07:31;;;;;;;12.33;11.23;;;;;;;;;;5055598;28;20501;-95
2021/08/15 05:09:59;;;;;;;11.20;9.63;;;;;;;;;;5055848;28;20455;-94
2021/08/15 05:12:27;;;;;;;12.30;10.97;;;;;;;;;;5055468;28;20458;-93
2021/08/15 05:14:54;;;;;;;22.13;10.80;;;;;;;;;;5055527;28;20457;-92
2021/08/15 05:17:22;;;;;;;12.47;9.80;;;;;;;;;;5055550;28;20451;-94
2021/08/15 05:19:49;;;;;;;11.37;10.27;;;;;;;;;;5055703;28;20469;-93
2021/08/15 05:22:16;;;;;;;11.70;10.60;;;;;;;;;;5055090;28;20501;-95
2021/08/15 05:24:43;;;;;;;11.17;9.40;;;;;;;;;;5055595;28;20455;-95
2021/08/15 05:27:10;;;;;;;11.30;10.30;;;;;;;;;;5055663;28;20447;-96
2021/08/15 05:29:39;;;;;;;14.03;10.97;;;;;;;;;;5054387;28;20458;-94
2021/08/15 05:32:07;;;;;;;10.67;9.63;;;;;;;;;;5055964;28;20454;-94
2021/08/15 05:34:34;;;;;;;12.90;11.63;;;;;;;;;;5058170;28;20545;-91
2021/08/15 05:37:01;;;;;;;13.37;12.07;;;;;;;;;;5056676;28;20455;-94
2021/08/15 05:39:28;;;;;;;12.00;10.70;;;;;;;;;;5054682;28;20435;-90
2021/08/15 05:41:56;;;;;;;10.43;9.37;;;20.50;99.90;;;;;;5054957;28;20490;-94
2021/08/15 05:44:23;;;;;;;10.80;9.50;;;;;;;;;;5053375;28;20794;-93
2021/08/15 05:46:52;;;;;;;12.57;11.47;;;;;;;;;;5053978;28;20471;-91
2021/08/15 05:49:19;;;;;;;11.80;10.80;;;;;;;;;;5057189;28;20456;-91
2021/08/15 05:51:46;;;;;;;11.50;10.40;;;;;;;;;;5056311;28;20459;-93
2021/08/15 05:54:13;;;;;;;12.43;11.20;;;;;;;;;;5055263;28;20502;-92
2021/08/15 05:56:41;;;;;;;12.50;11.10;;;;;;;;;;5057460;28;20869;-94
2021/08/15 05:59:09;;;;;;;13.53;10.60;;;22.80;99.90;;;;;;5060211;28;20942;-90
2021/08/15 06:01:37;;;;;;;10.43;9.50;;;;;;;;;;5068134;28;20476;-91
2021/08/15 06:04:06;;;;;;;11.90;10.60;;;;;;;;;;5067384;28;20458;-92
2021/08/15 06:06:33;;;;;;;11.60;10.50;;;;;;;;;;5061714;28;20439;-93
2021/08/15 06:09:00;;;;;;;10.73;9.63;;;;;;;;;;5061250;28;20450;-91
2021/08/15 06:11:30;;;;;;;11.80;10.60;;;;;;;;;;5066936;28;20427;-94
2021/08/15 06:13:58;;;;;;;10.40;9.60;;;;;;;;;;5063169;28;20446;-92
2021/08/15 06:16:25;;;;;;;9.93;9.13;;;;;;;;;;5061445;28;20455;-95
2021/08/15 06:18:53;;;;;;;10.73;9.83;;;24.40;99.90;;;;;;5060178;28;20442;-93
2021/08/15 06:21:21;;;;;;;9.90;9.00;;;;;;;;;;5096586;22;20480;-92
2021/08/15 06:23:49;;;;;;;9.50;8.60;;;;;;;;;;5073050;28;20450;-92
2021/08/15 06:26:17;;;;;;;10.97;9.97;;;;;;;;;;5072895;28;20503;-94
2021/08/15 06:28:47;;;;;;;10.50;9.50;;;;;;;;;;5075422;28;20513;-94
2021/08/15 06:31:14;;;;;;;10.10;9.07;;;;;;;;;;5076528;28;20529;-93
2021/08/15 06:33:47;;;;;;;10.67;9.77;;;;;;;;;;5080239;28;20449;-94
2021/08/15 06:39:08;;;;;;;10.80;9.90;;;;;;;;;;5082662;28;20450;-95
2021/08/15 06:41:40;;;;;;;10.10;9.20;;;;;;;;;;5086066;28;20480;-95
2021/08/15 06:44:08;;;;;;;10.53;9.60;;;;;;;;;;5099851;28;20464;-94
2021/08/15 06:46:36;;;;;;;10.77;9.73;;;;;;;;;;5098538;28;20457;-95
2021/08/15 06:49:22;;;;;;;10.60;9.73;;;;;;;;;;5106061;28;20432;-95
2021/08/15 06:51:49;;;;;;;10.77;9.80;;;;;;;;;;5097960;28;20468;-92
2021/08/15 06:54:17;;;;;;;10.37;9.37;;;;;;;;;;5095070;28;20469;-93
2021/08/15 06:56:45;;;;;;;10.13;9.20;;;;;;;;;;5095047;28;20453;-93
2021/08/15 06:59:13;;;;;;;10.83;9.73;;;;;;;;;;5095787;28;20459;-92
2021/08/15 07:01:40;;;;;;;10.53;9.50;;;;;;;;;;5099269;28;20525;-93
2021/08/15 07:04:08;;;;;;;10.27;9.30;;;;;;;;;;5098336;28;20498;-92
2021/08/15 07:06:35;;;;;;;9.57;8.87;;;;;;;;;;5099063;28;20449;-92
2021/08/15 07:09:04;;;;;;;10.60;9.60;;;;;;;;;;5104258;28;20456;-95
2021/08/15 07:11:32;;;;;;;9.60;8.57;;;;;;;;;;5100847;28;20471;-94
2021/08/15 07:13:59;;;;;;;9.80;8.80;;;;;;;;;;5099040;28;20456;-91
2021/08/15 07:16:26;;;;;;;10.40;9.50;;;;;;;;;;5105388;28;20429;-92
2021/08/15 07:18:54;;;;;;;10.50;9.50;;;;;;;;;;5121722;28;20436;-94
2021/08/15 07:21:21;;;;;;;10.40;8.90;;;;;;;;;;5114110;28;20480;-94
2021/08/15 07:24:01;;;;;;;10.90;10.00;;;;;;;;;;5105846;28;20456;-94
2021/08/15 07:26:29;;;;;;;10.30;9.40;;;;;;;;;;5105689;28;20448;-95
2021/08/15 07:28:57;;;;;;;10.23;9.33;;;;;;;;;;5104141;28;20450;-93
2021/08/15 07:31:28;;;;;;;11.40;10.30;;;;;;;;;;5126641;22;20496;-95
2021/08/15 07:33:56;;;;;;;11.30;10.40;;;;;;;;;;5082491;28;20481;-94
2021/08/15 07:36:25;;;;;;;10.37;9.43;;;;;;;;;;5084958;28;20842;-96
2021/08/15 07:38:53;;;;;;;12.90;9.30;;;;;;;;;;5060440;28;20451;-93
2021/08/15 07:41:20;;;;;;;10.60;9.57;;;;;;;;;;5055651;28;20464;-94
2021/08/15 07:43:47;;;;;;;11.73;10.53;;;;;;;;;;5056409;28;20451;-94
2021/08/15 07:46:16;;;;;;;11.00;10.10;;;;;;;;;;5055501;28;20458;-95
2021/08/15 07:48:43;;;;;;;10.93;10.03;;;;;;;;;;5056547;28;20457;-95
2021/08/15 07:51:11;;;;;;;10.60;9.80;;;;;;;;;;5056292;28;20454;-93
2021/08/15 07:53:38;;;;;;;11.43;10.53;;;;;;;;;;5055045;28;20450;-93
2021/08/15 07:56:05;;;;;;;11.73;10.67;;;;;;;;;;5036542;28;20922;-93
2021/08/15 07:58:33;;;;;;;10.87;10.00;;;;;;;;;;5033721;28;20555;-92
2021/08/15 08:01:00;;;;;;;12.00;10.90;;;;;;;;;;5036955;28;20446;-93
2021/08/15 08:03:31;;;;;;;11.63;10.63;;;29.00;99.90;;;;;;5046642;28;20497;-94
2021/08/15 08:05:58;;;;;;;11.10;10.03;;;;;;;;;;4997675;28;20440;-93
2021/08/15 08:08:25;;;;;;;11.23;10.23;;;;;;;;;;4994481;28;20463;-91
2021/08/15 08:10:54;;;;;;;10.60;9.60;;;;;;;;;;5001625;28;20448;-92
2021/08/15 08:13:22;;;;;;;10.87;9.87;;;29.30;99.70;;;;;;5013488;28;20452;-93
2021/08/15 08:15:50;;;;;;;10.07;9.30;;;;;;;;;;5013402;28;20452;-94
2021/08/15 08:18:17;;;;;;;9.33;8.60;;;;;;;;;;5013246;28;20447;-92
2021/08/15 08:20:46;;;;;;;10.97;9.87;;;;;;;;;;5012254;28;20467;-93
2021/08/15 08:23:15;;;;;;;11.50;9.50;;;30.60;97.40;;;;;;5015649;28;20491;-94
2021/08/15 08:25:44;;;;;;;9.60;8.70;;;30.60;97.50;;;;;;4966121;28;20479;-93
2021/08/15 08:28:11;;;;;;;10.73;9.63;;;;;;;;;;5016978;28;20459;-94
2021/08/15 08:30:39;;;;;;;9.93;9.00;;;;;;;;;;5022034;28;20436;-93
2021/08/15 08:33:06;;;;;;;9.63;8.83;;;;;;;;;;5022177;28;20879;-92
2021/08/15 08:35:34;;;;;;;10.33;9.10;;;;;;;;;;5023604;28;20459;-92
2021/08/15 08:38:02;;;;;;;10.27;9.47;;;30.30;97.70;;;;;;5054859;28;20472;-92
2021/08/15 08:40:29;;;;;;;10.80;9.70;;;;;;;;;;5055536;28;20430;-92
2021/08/15 08:42:58;;;;;;;10.60;9.10;;;;;;;;;;5056458;28;20492;-92
2021/08/15 08:45:26;;;;;;;9.97;9.07;;;;;;;;;;5063648;28;20451;-94
2021/08/15 08:47:56;;;;;;;10.20;9.50;;;30.30;98.80;;;;;;5060803;28;20433;-94
2021/08/15 08:50:24;;;;;;;10.50;9.50;;;31.20;96.60;;;;;;5055779;28;20438;-94
2021/08/15 08:52:51;;;;;;;10.60;9.63;;;;;;;;;;5058227;28;20450;-93
2021/08/15 08:55:20;;;;;;;16.60;9.63;;;31.20;96.80;;;;;;5056678;28;20469;-95
2021/08/15 08:57:47;;;;;;;9.20;8.43;;;;;;;;;;5057916;28;20498;-95
2021/08/15 09:00:16;;;;;;;9.87;9.10;;;31.90;95.60;;;;;;5057660;28;20465;-92
2021/08/15 09:02:46;;;;;;;10.90;9.40;;;;;;;;;;5056499;28;20489;-95
2021/08/15 09:05:13;;;;;;;10.70;9.70;;;;;;;;;;5056465;28;20460;-91
2021/08/15 09:07:41;;;;;;;10.33;9.30;;;32.10;93.40;;;;;;5056062;28;20457;-94
2021/08/15 09:10:11;;;;;;;12.90;9.80;;;31.00;94.60;;;;;;5052606;28;20442;-94
2021/08/15 09:12:41;;;;;;;9.47;8.67;;;30.50;95.80;;;;;;5056453;28;20450;-95
2021/08/15 09:15:11;;;;;;;10.00;9.20;;;30.60;96.70;;;;;;5056370;28;20443;-94
2021/08/15 09:17:38;;;;;;;9.53;8.80;;;;;;;;;;5056408;28;20458;-96
2021/08/15 09:20:07;;;;;;;9.17;8.57;;;31.60;96.50;;;;;;5056218;28;20442;-94
2021/08/15 09:22:37;;;;;;;9.63;8.87;;;31.90;94.30;;;;;;5055881;28;20474;-95
2021/08/15 09:25:06;;;;;;;10.40;9.50;;;31.10;96.00;;;;;;5055966;28;20454;-93
2021/08/15 09:27:37;;;;;;;9.63;8.73;;;31.90;94.30;;;;;;5050278;28;20454;-94
2021/08/15 09:30:24;;;;;;;9.43;8.50;;;32.10;95.30;;;;;;5057986;28;20458;-93
2021/08/15 09:33:09;;;;;;;10.43;9.57;;;;;;;;;;5052908;28;20473;-93
2021/08/15 09:35:59;;;;;;;10.30;9.10;;;31.10;95.30;;;;;;5229832;22;20557;-94
2021/08/15 09:38:27;;;;;;;11.33;10.37;;;;;;;;;;5034407;28;20481;-91
2021/08/15 09:40:55;;;;;;;9.03;8.20;;;31.20;95.40;;;;;;5077010;22;20854;-94
2021/08/15 09:43:25;;;;;;;9.70;8.90;;;32.10;94.60;;;;;;5075840;28;20487;-95
2021/08/15 09:45:54;;;;;;;9.97;9.00;;;;;;;;;;5086475;28;20520;-93
2021/08/15 09:48:25;;;;;;;9.60;8.60;;;;;;;;;;5074478;28;20444;-94
2021/08/15 09:51:11;;;;;;;11.47;10.47;;;31.40;94.60;;;;;;5077890;28;20455;-93
2021/08/15 09:53:39;;;;;;;10.07;9.17;;;31.80;94.40;;;;;;5074585;28;20481;-92
2021/08/15 09:56:29;;;;;;;11.07;8.87;;;;;;;;;;5120174;22;20471;-95
2021/08/15 09:59:28;;;;;;;12.50;9.10;;;29.50;99.30;;;;;;5232382;22;20496;-96
2021/08/15 10:02:21;;;;;;;10.30;9.35;;;31.30;96.60;;;;;;5104644;28;20452;-93
2021/08/15 10:04:50;;;;;;;9.30;8.40;;;;;;;;;;5110372;28;20472;-94
2021/08/15 10:07:20;;;;;;;11.00;9.70;;;;;;;;;;5533174;22;20465;-93
2021/08/15 10:09:48;;;;;;;10.47;9.20;;;29.80;98.70;;;;;;5085961;28;20532;-93
2021/08/15 10:12:17;;;;;;;12.03;10.87;;;;;;;;;;5195119;22;20488;-94
2021/08/15 10:14:51;;;;;;;10.10;9.20;;;;;;;;;;5204439;22;20514;-94
2021/08/15 10:17:23;;;;;;;11.33;10.00;;;30.20;98.70;;;;;;5085646;28;20468;-93
2021/08/15 10:22:42;;;;;;;10.80;9.80;;;30.40;98.30;;;;;;5147339;22;20494;-95
2021/08/15 10:25:34;;;;;;;11.17;9.93;;;;;;;;;;5138028;28;20423;-92
2021/08/15 10:28:09;;;;;;;11.43;10.43;;;30.30;99.30;;;;;;5134158;22;20505;-94
2021/08/15 10:30:47;;;;;;;19.73;11.63;;;;;;;;;;5246631;22;20531;-95
2021/08/15 10:36:44;;;;;;;16.50;11.53;;;;;;;;;;5115513;22;20436;-95
2021/08/15 10:39:52;;;;;;;11.40;10.30;;;;;;;;;;5148975;22;20467;-94
2021/08/15 10:42:47;;;;;;;10.23;9.43;;;31.90;96.30;;;;;;5138128;28;20458;-95
2021/08/15 10:45:30;;;;;;;11.27;9.60;;;;;;;;;;5053878;28;20442;-96
2021/08/15 10:48:25;;;;;;;10.07;9.07;;;31.70;95.30;;;;;;5060263;28;20450;-95
2021/08/15 10:50:54;;;;;;;11.57;10.50;;;31.70;95.70;;;;;;5059227;28;20602;-95
2021/08/15 10:53:49;;;;;;;11.80;10.60;;;31.20;96.40;;;;;;5057438;28;20473;-93
2021/08/15 10:59:46;;;;;;;10.47;9.47;;;29.30;99.90;;;;;;5045801;28;20455;-93
2021/08/15 11:02:30;;;;;;;11.17;10.07;;;29.00;99.90;;;;;;5052750;28;20431;-93
2021/08/15 11:05:02;;;;;;;11.00;9.90;;;28.60;99.90;;;;;;5127947;22;20471;-91
2021/08/15 11:07:39;;;;;;;10.77;9.73;;;28.80;99.90;;;;;;5133059;22;20549;-92
2021/08/15 11:13:13;;;;;;;11.80;10.70;;;30.60;99.90;;;;;;5088990;28;20485;-93
2021/08/15 11:15:40;;;;;;;11.00;9.87;;;;;;;;;;5084734;28;20449;-93
2021/08/15 11:18:12;;;;;;;11.00;9.90;;;32.30;97.80;;;;;;5082234;28;20449;-92
2021/08/15 11:20:45;;;;;;;11.40;10.20;;;32.60;95.60;;;;;;5077026;28;20441;-92
2021/08/15 11:23:15;;;;;;;11.67;10.57;;;31.40;96.30;;;;;;5077313;28;20527;-92
2021/08/15 11:25:43;;;;;;;12.37;11.20;;;;;;;;;;5073829;28;20456;-93
2021/08/15 11:28:12;;;;;;;11.40;10.40;;;30.50;98.20;;;;;;5074575;28;20457;-92
2021/08/15 11:30:39;;;;;;;12.60;9.10;;;31.30;96.60;;;;;;5078084;28;20469;-93
2021/08/15 11:33:08;;;;;;;10.00;9.10;;;;;;;;;;5077765;28;20450;-92
2021/08/15 11:35:42;;;;;;;9.33;8.43;;;31.50;94.70;;;;;;5077320;28;21004;-93
2021/08/15 11:38:15;;;;;;;9.80;8.87;;;30.50;96.90;;;;;;5073300;28;20975;-93
2021/08/15 11:40:47;;;;;;;9.70;8.70;;;30.00;97.50;;;;;;5077341;28;20480;-93
2021/08/15 11:43:17;;;;;;;14.33;13.03;;;29.50;99.70;;;;;;5073954;28;20501;-93
2021/08/15 11:45:46;;;;;;;11.43;10.23;;;29.20;99.90;;;;;;5072754;28;20441;-94
2021/08/15 11:48:24;;;;;;;10.80;9.80;;;28.60;99.90;;;;;;5070129;28;20523;-94
2021/08/15 11:50:54;;;;;;;10.37;9.30;;;28.40;99.90;;;;;;5077480;28;20947;-91
2021/08/15 11:53:24;;;;;;;12.67;11.57;;;28.10;99.90;;;;;;5064382;28;20513;-94
2021/08/15 11:55:51;;;;;;;10.33;9.30;;;;;;;;;;4996257;28;20460;-92
2021/08/15 11:58:22;;;;;;;10.50;9.60;;;;;;;;;;4999013;28;20457;-93
2021/08/15 12:00:50;;;;;;;9.87;8.90;;;;;;;;;;4995914;28;20453;-94
2021/08/15 12:03:18;;;;;;;12.90;10.80;;;27.60;99.90;;;;;;4996011;28;21040;-93
2021/08/15 12:05:47;;;;;;;12.80;11.70;;;27.40;99.90;;;;;;4992626;28;20828;-92
2021/08/15 12:08:15;;;;;;;13.33;12.23;;;27.00;99.90;;;;;;4989955;28;20453;-92
2021/08/15 12:10:47;;;;;;;12.93;11.70;;;26.90;99.90;;;;;;4987644;28;20470;-94
2021/08/15 12:13:25;;;;;;;14.57;13.07;;;26.70;99.90;;;;;;4980747;28;20461;-95
2021/08/15 12:15:55;;;;;;;13.93;12.60;;;26.40;99.90;;;;;;4998789;28;20530;-92
2021/08/15 12:18:37;;;;;;;14.37;12.97;;;26.30;99.90;;;;;;4993049;28;20461;-92
2021/08/15 12:21:17;;;;;;;13.80;12.70;;;26.10;99.90;;;;;;4994329;28;20453;-91
2021/08/15 12:23:59;;;;;;;14.93;13.63;;;26.10;99.90;;;;;;4997016;28;20488;-94
2021/08/15 12:26:27;;;;;;;14.10;12.80;;;25.70;99.90;;;;;;4997254;28;20438;-92
2021/08/15 12:28:59;;;;;;;14.53;13.13;;;25.30;99.90;;;;;;4990182;28;20464;-94
2021/08/15 12:31:34;;;;;;;14.70;13.50;;;25.10;99.90;;;;;;4997935;28;20822;-93
2021/08/15 12:34:05;;;;;;;17.70;15.20;;;;;;;;;;4997515;28;20563;-93
2021/08/15 12:36:41;;;;;;;16.10;14.60;;;24.70;99.90;;;;;;4996842;28;20457;-93
2021/08/15 12:39:09;;;;;;;18.57;15.40;;;;;;;;;;4996201;28;20450;-94
2021/08/15 12:41:48;;;;;;;17.37;15.67;;;24.30;99.90;;;;;;5004279;28;20456;-94
2021/08/15 12:44:23;;;;;;;17.00;15.30;;;24.00;99.90;;;;;;4994025;28;20830;-93
2021/08/15 12:47:03;;;;;;;16.13;14.57;;;23.90;99.90;;;;;;5002988;28;20449;-94
2021/08/15 12:49:39;;;;;;;17.80;16.10;;;24.20;99.90;;;;;;5006927;28;20528;-91
2021/08/15 12:52:21;;;;;;;16.67;14.97;;;24.10;99.90;;;;;;5000846;28;20456;-92
2021/08/15 12:55:24;;;;;;;17.27;15.50;;;24.20;99.90;;;;;;5003202;28;20465;-92
2021/08/15 12:58:07;;;;;;;17.30;15.60;;;24.10;99.90;;;;;;5007604;28;20445;-94
2021/08/15 13:00:43;;;;;;;16.93;14.93;;;24.00;99.90;;;;;;4985061;28;20446;-92
2021/08/15 13:03:11;;;;;;;18.10;16.27;;;24.00;99.90;;;;;;4979858;28;20477;-92
2021/08/15 13:05:40;;;;;;;20.30;16.80;;;24.20;99.90;;;;;;4980897;28;20958;-93
2021/08/15 13:08:10;;;;;;;18.33;16.37;;;24.20;99.90;;;;;;4977645;28;20430;-92
2021/08/15 13:10:59;;;;;;;18.73;16.73;;;;;;;;;;5065339;23;20484;-93
2021/08/15 13:16:10;;;;;;;12.77;10.27;;;;;;;;;;5048702;28;20439;-90
2021/08/15 13:18:46;;;;;;;18.03;15.00;;;;;;;;;;5264614;23;20458;-94
2021/08/15 13:21:25;;;;;;;11.27;10.17;;;;;;;;;;5063265;28;20430;-93
2021/08/15 13:23:52;;;;;;;11.20;9.40;;;;;;;;;;5057013;28;20681;-89
2021/08/15 13:26:19;;;;;;;7.20;5.63;;;;;;;;;;5054800;28;20477;-92
2021/08/15 13:28:48;;;;;;;5.30;4.80;;;;;;;;;;5056456;28;20451;-94
2021/08/15 13:31:16;;;;;;;4.77;2.27;;;;;;;;;;5059128;28;20533;-91
2021/08/15 13:33:44;;;;;;;8.57;5.80;;;;;;;;;;5058826;28;20474;-92
2021/08/15 13:36:11;;;;;;;4.80;4.20;;;;;;;;;;5056337;28;20930;-89
2021/08/15 13:38:46;;;;;;;10.40;6.13;;;;;;;;;;5065755;28;20438;-91
2021/08/15 13:41:21;;;;;;;5.93;5.33;;;;;;;;;;5064779;28;20419;-94
2021/08/15 13:43:48;;;;;;;5.77;5.13;;;;;;;;;;5063466;28;20485;-92
2021/08/15 13:46:20;;;;;;;10.40;5.60;;;;;;;;;;5063100;28;20467;-95
2021/08/15 13:48:48;;;;;;;8.30;5.20;;;;;;;;;;5058797;28;20465;-93
2021/08/15 13:51:15;;;;;;;6.60;4.50;;;;;;;;;;5058825;28;20450;-91
2021/08/15 13:53:42;;;;;;;6.00;5.20;;;;;;;;;;5058656;28;20850;-94
2021/08/15 13:56:10;;;;;;;8.40;5.60;;;;;;;;;;5056047;28;20470;-94
2021/08/15 14:01:26;;;;;;;7.30;5.67;;;;;;;;;;5050198;22;20518;-92
2021/08/15 14:03:53;;;;;;;8.27;5.07;;;;;;;;;;5068242;28;20474;-93
2021/08/15 14:06:20;;;;;;;5.00;4.50;;;;;;;;;;5060489;28;20454;-94
2021/08/15 14:08:47;;;;;;;6.50;4.00;;;;;;;;;;5054516;28;20458;-93
2021/08/15 14:11:14;;;;;;;4.13;3.50;;;;;;;;;;5055093;28;20454;-92
2021/08/15 14:13:41;;;;;;;4.43;4.03;;;;;;;;;;5055941;28;20819;-92
2021/08/15 14:16:08;;;;;;;6.27;4.60;;;;;;;;;;5053856;28;20442;-93
2021/08/15 14:18:38;;;;;;;5.20;3.90;;;;;;;;;;5057531;28;20502;-94
2021/08/15 14:21:06;;;;;;;7.00;4.37;;;;;;;;;;5053345;28;20458;-92
2021/08/15 14:23:33;;;;;;;9.10;3.97;;;;;;;;;;5056709;28;20525;-93
2021/08/15 14:26:00;;;;;;;7.57;3.93;;;;;;;;;;5057910;28;20938;-94
2021/08/15 14:28:28;;;;;;;5.00;3.50;;;;;;;;;;5054598;28;20964;-93